Time;durP1;ratioP1;P1;durP2;ratioP2;P2;SDS_P1;SDS_P2;PMS_P1;PMS_P2;Temp;Humidity;BMP_temperature;BMP_pressure;BME280_temperature;BME280_humidity;BME280_pressure;Samples;Min_cycle;Max_cycle;Signal;HPM_P1;HPM_P2
2022/07/01 00:00:49;;;;;;;3.93;0.80;;;;;;;21.47;57.84;97523.06;5055446;28;20203;-73
2022/07/01 00:03:14;;;;;;;2.10;0.90;;;;;;;21.57;56.89;97535.94;5065404;28;20269;-72
2022/07/01 00:05:40;;;;;;;2.70;0.90;;;;;;;21.54;56.94;97526.53;5060410;28;20185;-73
2022/07/01 00:08:05;;;;;;;2.43;0.90;;;;;;;21.45;57.36;97535.78;5058458;28;20179;-73
2022/07/01 00:10:31;;;;;;;1.67;1.00;;;;;;;21.31;57.20;97529.72;5062737;28;20565;-73
2022/07/01 00:12:57;;;;;;;2.30;0.90;;;;;;;21.30;57.07;97528.91;5054129;28;20206;-72
2022/07/01 00:15:22;;;;;;;2.23;1.00;;;;;;;21.21;56.17;97524.84;5065712;28;20194;-73
2022/07/01 00:17:48;;;;;;;0.90;0.70;;;;;;;21.21;57.36;97542.69;5056223;28;20207;-73
2022/07/01 00:20:14;;;;;;;3.70;0.83;;;;;;;21.13;57.60;97544.56;5065924;28;20273;-73
2022/07/01 00:22:40;;;;;;;1.53;0.80;;;;;;;21.12;57.13;97553.59;5060034;28;20468;-72
2022/07/01 00:25:06;;;;;;;1.20;0.70;;;;;;;21.06;56.65;97548.28;5058490;28;20424;-71
2022/07/01 00:27:32;;;;;;;3.30;0.83;;;;;;;20.96;56.09;97552.22;5067800;28;20567;-72
2022/07/01 00:29:57;;;;;;;1.60;0.73;;;;;;;20.93;56.18;97555.28;5067242;28;20507;-73
2022/07/01 00:32:23;;;;;;;3.20;0.70;;;;;;;20.95;56.98;97553.25;5072038;28;20587;-73
2022/07/01 00:34:48;;;;;;;3.50;1.10;;;;;;;20.98;56.89;97552.03;5072377;28;20190;-73
2022/07/01 00:37:14;;;;;;;1.77;1.20;;;;;;;20.81;57.61;97538.34;5073593;28;20186;-74
2022/07/01 00:39:39;;;;;;;1.50;0.90;;;;;;;20.70;58.62;97532.59;5070962;28;20178;-74
2022/07/01 00:42:04;;;;;;;2.60;0.80;;;;;;;20.77;59.38;97531.81;5071590;28;20584;-72
2022/07/01 00:44:31;;;;;;;3.53;1.00;;;;;;;20.81;58.81;97522.34;5072254;28;20175;-73
2022/07/01 00:46:58;;;;;;;3.13;0.90;;;;;;;20.75;58.29;97523.22;5080073;28;20182;-73
2022/07/01 00:49:25;;;;;;;1.10;0.70;;;;;;;20.78;58.88;97525.47;5066969;28;20944;-73
2022/07/01 00:51:51;;;;;;;2.17;1.00;;;;;;;20.89;58.69;97516.81;5070583;28;20443;-72
2022/07/01 00:54:17;;;;;;;3.17;0.70;;;;;;;20.92;58.57;97518.22;5071462;28;20425;-74
2022/07/01 00:56:43;;;;;;;1.30;0.80;;;;;;;20.86;57.98;97517.22;5071682;28;20421;-74
2022/07/01 00:59:08;;;;;;;2.20;0.77;;;;;;;20.82;58.05;97511.50;5071305;28;20868;-73
2022/07/01 01:01:34;;;;;;;5.10;0.70;;;;;;;20.80;57.92;97520.72;5071857;28;20289;-73
2022/07/01 01:04:00;;;;;;;2.53;0.97;;;;;;;20.71;57.95;97518.28;5071757;28;20208;-72
2022/07/01 01:06:25;;;;;;;1.87;0.90;;;;;;;20.53;58.81;97518.13;5071092;28;20182;-74
2022/07/01 01:08:51;;;;;;;2.60;0.80;;;;;;;20.52;59.29;97511.16;5071414;28;20177;-74
2022/07/01 01:11:17;;;;;;;1.40;0.80;;;;;;;20.50;59.12;97505.22;5073970;28;20293;-74
2022/07/01 01:13:43;;;;;;;1.20;0.70;;;;;;;20.48;59.94;97499.28;5078480;28;20508;-74
2022/07/01 01:16:19;;;;;;;1.83;1.00;;;;;;;20.51;60.17;97498.88;5071795;28;20182;-74
2022/07/01 01:18:45;;;;;;;1.70;0.70;;;;;;;20.56;60.11;97499.88;5071770;28;20198;-73
2022/07/01 01:21:10;;;;;;;2.80;0.90;;;;;;;20.62;59.79;97506.22;5070134;28;20448;-74
2022/07/01 01:23:36;;;;;;;2.47;0.80;;;;;;;20.68;58.96;97500.03;5072990;28;20178;-74
2022/07/01 01:26:02;;;;;;;2.50;0.70;;;;;;;20.71;58.77;97499.63;5071572;28;20654;-73
2022/07/01 01:28:28;;;;;;;1.83;0.70;;;;;;;20.65;57.87;97505.81;5069244;28;20235;-73
2022/07/01 01:30:53;;;;;;;1.10;0.73;;;;;;;20.51;58.10;97505.00;5071500;28;20440;-74
2022/07/01 01:33:19;;;;;;;1.03;0.70;;;;;;;20.47;59.07;97497.66;5070573;28;20440;-74
2022/07/01 01:35:44;;;;;;;1.10;0.80;;;;;;;20.49;58.75;97503.59;5073233;28;20257;-74
2022/07/01 01:38:10;;;;;;;3.03;1.10;;;;;;;20.50;58.68;97502.56;5048093;28;20301;-74
2022/07/01 01:40:35;;;;;;;1.20;0.70;;;;;;;20.57;58.82;97492.72;5069124;28;20743;-74
2022/07/01 01:43:01;;;;;;;1.23;0.70;;;;;;;20.58;59.04;97481.03;5073463;28;20179;-74
2022/07/01 01:45:26;;;;;;;1.40;0.70;;;;;;;20.57;58.79;97479.41;5062215;28;20181;-73
2022/07/01 01:47:52;;;;;;;1.43;0.70;;;;;;;20.55;58.85;97470.78;5068393;28;20562;-73
2022/07/01 01:50:19;;;;;;;2.40;0.90;;;;;;;20.56;58.41;97472.44;5065464;28;20193;-73
2022/07/01 01:52:45;;;;;;;2.30;0.70;;;;;;;20.48;58.49;97462.03;5068175;28;20178;-72
2022/07/01 01:55:11;;;;;;;1.00;0.70;;;;;;;20.44;58.50;97455.47;5035837;28;20439;-73
2022/07/01 01:57:36;;;;;;;2.07;0.80;;;;;;;20.52;58.54;97449.94;5063831;28;20577;-74
2022/07/01 02:00:04;;;;;;;1.00;0.80;;;;;;;20.41;57.72;97438.09;5066882;28;20189;-73
2022/07/01 02:02:30;;;;;;;3.83;0.90;;;;;;;20.42;57.77;97432.53;5067610;28;20676;-74
2022/07/01 02:04:55;;;;;;;1.00;0.80;;;;;;;20.34;58.59;97424.81;5069057;28;20439;-72
2022/07/01 02:07:21;;;;;;;1.23;0.80;;;;;;;20.25;59.08;97426.88;5070302;28;20846;-73
2022/07/01 02:09:46;;;;;;;3.33;0.93;;;;;;;20.29;58.36;97416.63;5070706;28;20268;-73
2022/07/01 02:12:12;;;;;;;3.93;1.00;;;;;;;20.28;58.83;97408.84;5070120;28;20208;-73
2022/07/01 02:14:37;;;;;;;2.70;0.90;;;;;;;20.30;58.38;97412.13;5060265;28;20232;-73
2022/07/01 02:17:03;;;;;;;2.10;0.80;;;;;;;20.31;58.48;97403.94;5064361;28;20614;-70
2022/07/01 02:19:28;;;;;;;1.10;0.80;;;;;;;20.24;58.46;97405.81;5062817;28;20201;-72
2022/07/01 02:21:54;;;;;;;0.90;0.73;;;;;;;20.15;58.28;97407.06;5065942;28;20209;-73
2022/07/01 02:24:19;;;;;;;4.60;0.93;;;;;;;20.05;58.53;97408.28;5068902;28;20676;-72
2022/07/01 02:26:45;;;;;;;1.10;0.97;;;;;;;20.07;58.12;97403.59;5070299;28;20179;-72
2022/07/01 02:29:11;;;;;;;3.07;1.00;;;;;;;20.02;57.95;97415.88;5070154;28;20182;-74
2022/07/01 02:31:36;;;;;;;8.60;0.93;;;;;;;19.97;59.00;97416.50;5074660;28;20204;-73
2022/07/01 02:34:02;;;;;;;0.90;0.60;;;;;;;19.87;58.92;97430.22;5072380;28;20267;-73
2022/07/01 02:36:27;;;;;;;1.70;0.70;;;;;;;19.85;59.49;97428.75;5076060;28;20178;-74
2022/07/01 02:38:53;;;;;;;1.70;0.90;;;;;;;19.83;58.43;97430.81;5074339;28;20202;-73
2022/07/01 02:41:18;;;;;;;2.00;0.87;;;;;;;19.75;59.01;97438.00;5075933;28;20206;-73
2022/07/01 02:43:44;;;;;;;1.17;0.90;;;;;;;19.65;59.00;97442.91;5080212;28;20664;-72
2022/07/01 02:46:09;;;;;;;1.43;0.93;;;;;;;19.64;59.64;97438.59;5075266;28;20182;-74
2022/07/01 02:48:35;;;;;;;2.97;0.83;;;;;;;19.63;58.74;97436.97;5066075;28;20592;-73
2022/07/01 02:51:01;;;;;;;3.63;0.93;;;;;;;19.52;58.97;97430.41;5069436;28;20251;-72
2022/07/01 02:53:26;;;;;;;1.70;1.13;;;;;;;19.47;59.48;97438.16;5070434;28;20186;-73
2022/07/01 02:55:52;;;;;;;1.97;1.10;;;;;;;19.39;59.69;97435.72;5074326;28;20182;-73
2022/07/01 02:58:17;;;;;;;1.70;1.00;;;;;;;19.39;59.37;97433.06;5073546;28;20293;-73
2022/07/01 03:00:43;;;;;;;1.70;1.27;;;;;;;19.39;59.84;97433.91;5073992;28;20273;-74
2022/07/01 03:03:08;;;;;;;1.93;1.30;;;;;;;19.39;59.62;97441.03;5073490;28;20186;-73
2022/07/01 03:05:34;;;;;;;6.40;1.57;;;;;;;19.34;59.84;97446.97;5073931;28;20262;-73
2022/07/01 03:08:00;;;;;;;4.60;1.50;;;;;;;19.36;60.36;97455.56;5073690;28;20273;-72
2022/07/01 03:10:26;;;;;;;1.53;1.33;;;;;;;19.35;59.31;97448.59;5073590;28;20175;-73
2022/07/01 03:12:52;;;;;;;2.30;2.10;;;;;;;19.27;59.88;97451.47;5072669;28;20549;-73
2022/07/01 03:15:17;;;;;;;1.70;1.60;;;;;;;19.32;59.79;97459.63;5073503;28;20431;-73
2022/07/01 03:17:44;;;;;;;2.50;1.80;;;;;;;19.26;59.84;97461.25;5073182;28;20210;-73
2022/07/01 03:20:14;;;;;;;1.53;1.40;;;;;;;19.32;59.88;97465.78;5073464;28;20186;-73
2022/07/01 03:22:40;;;;;;;1.57;1.40;;;;;;;19.44;59.72;97463.31;5072524;28;20436;-73
2022/07/01 03:25:07;;;;;;;3.63;1.80;;;;;;;19.43;59.29;97459.03;5073421;28;20425;-73
2022/07/01 03:27:33;;;;;;;2.40;1.30;;;;;;;19.42;59.28;97475.19;5073240;28;20984;-73
2022/07/01 03:29:59;;;;;;;2.63;1.33;;;;;;;19.37;59.21;97489.09;5077308;28;20430;-73
2022/07/01 03:32:25;;;;;;;1.60;1.17;;;;;;;19.39;59.36;97497.69;5073455;28;20543;-74
2022/07/01 03:34:51;;;;;;;2.60;1.07;;;;;;;19.24;60.13;97505.00;5072302;28;20468;-73
2022/07/01 03:37:18;;;;;;;1.40;1.20;;;;;;;19.37;59.92;97518.31;5066122;28;20197;-73
2022/07/01 03:39:43;;;;;;;2.20;1.13;;;;;;;19.32;58.36;97518.09;5063812;28;20438;-72
2022/07/01 03:42:09;;;;;;;1.50;0.90;;;;;;;19.38;58.56;97516.47;5070140;28;20476;-74
2022/07/01 03:44:35;;;;;;;1.10;1.00;;;;;;;19.25;58.72;97522.56;5067064;28;20178;-74
2022/07/01 03:47:01;;;;;;;2.23;1.17;;;;;;;19.25;58.88;97514.59;5056698;28;20953;-72
2022/07/01 03:49:27;;;;;;;2.93;1.20;;;;;;;19.19;58.62;97525.00;5065024;28;20641;-73
2022/07/01 03:51:53;;;;;;;1.47;1.03;;;;;;;19.29;59.35;97531.75;5070087;28;20590;-73
2022/07/01 03:54:32;;;;;;;8.00;1.10;;;;;;;19.40;59.53;97533.03;5037761;28;20547;-72
2022/07/01 03:57:08;;;;;;;2.17;1.07;;;;;;;19.28;59.29;97540.78;5076050;28;20420;-72
2022/07/01 03:59:39;;;;;;;2.40;1.20;;;;;;;19.29;59.59;97551.19;5065299;28;20465;-73
2022/07/01 04:02:06;;;;;;;1.27;1.00;;;;;;;19.35;59.18;97565.53;5071909;28;20452;-74
2022/07/01 04:04:32;;;;;;;3.80;1.03;;;;;;;19.30;58.94;97568.78;5072056;28;20511;-72
2022/07/01 04:06:59;;;;;;;1.93;0.73;;;;;;;19.25;58.75;97570.41;5072037;28;20799;-73
2022/07/01 04:09:26;;;;;;;1.77;1.07;;;;;;;19.18;59.72;97573.03;5071640;28;20417;-73
2022/07/01 04:11:52;;;;;;;1.40;0.80;;;;;;;19.10;60.67;97589.13;5077834;28;20447;-72
2022/07/01 04:14:17;;;;;;;2.93;1.17;;;;;;;19.08;60.47;97596.50;5048067;28;20960;-74
2022/07/01 04:16:46;;;;;;;0.90;0.70;;;;;;;19.02;60.53;97601.56;5073366;28;20478;-73
2022/07/01 04:19:13;;;;;;;1.23;0.80;;;;;;;19.03;60.95;97600.53;5071686;28;20221;-73
2022/07/01 04:24:24;;;;;;;1.43;0.80;;;;;;;19.06;60.42;97620.56;5070979;28;21401;-73
2022/07/01 04:26:50;;;;;;;2.20;1.00;;;;;;;19.01;60.26;97629.13;5071782;28;20424;-74
2022/07/01 04:29:15;;;;;;;1.23;1.03;;;;;;;19.00;60.19;97621.38;5071481;28;20436;-73
2022/07/01 04:31:41;;;;;;;1.10;0.80;;;;;;;18.98;60.22;97623.41;5076449;28;20447;-74
2022/07/01 04:34:08;;;;;;;2.60;1.00;;;;;;;18.96;60.37;97615.63;5071580;28;20194;-72
2022/07/01 04:36:34;;;;;;;1.83;0.80;;;;;;;18.99;60.62;97615.22;5068530;28;20190;-73
2022/07/01 04:39:00;;;;;;;1.30;0.80;;;;;;;18.99;61.10;97607.25;5070614;28;20551;-74
2022/07/01 04:44:10;;;;;;;2.60;0.80;;;;;;;19.09;60.87;97601.59;5073711;28;20190;-73
2022/07/01 04:46:35;;;;;;;3.83;1.00;;;;;;;19.19;60.82;97599.38;5065629;28;20446;-74
2022/07/01 04:49:01;;;;;;;1.00;0.70;;;;;;;19.21;61.14;97607.19;5061259;28;20213;-74
2022/07/01 04:51:26;;;;;;;1.23;0.70;;;;;;;19.14;60.68;97615.13;5069551;28;20231;-74
2022/07/01 04:53:52;;;;;;;1.10;0.70;;;;;;;19.07;61.82;97616.91;5071590;28;20174;-73
2022/07/01 04:56:18;;;;;;;3.20;0.80;;;;;;;18.98;62.21;97624.19;5066655;28;20265;-71
2022/07/01 04:58:43;;;;;;;1.87;0.80;;;;;;;18.96;61.71;97628.91;5069992;28;20287;-73
2022/07/01 05:01:09;;;;;;;2.37;1.00;;;;;;;19.02;61.97;97630.78;5070955;28;20214;-72
2022/07/01 05:03:34;;;;;;;3.20;0.80;;;;;;;19.09;61.91;97624.69;5067339;28;20186;-73
2022/07/01 05:06:00;;;;;;;1.50;1.17;;;;;;;19.07;62.41;97630.19;5062886;28;20187;-73
2022/07/01 05:08:25;;;;;;;1.20;0.87;;;;;;;18.99;62.68;97635.66;5066949;28;20653;-73
2022/07/01 05:10:51;;;;;;;1.60;1.20;;;;;;;18.97;62.93;97638.50;5059237;28;20249;-74
2022/07/01 05:13:17;;;;;;;3.87;0.90;;;;;;;18.89;63.07;97641.28;5054572;28;20191;-73
2022/07/01 05:15:42;;;;;;;1.83;1.20;;;;;;;18.93;62.91;97647.03;5063132;28;20174;-74
2022/07/01 05:23:56;;;;;;;1.43;0.90;;;;;;;18.90;63.47;97632.31;5060572;28;20436;-73
2022/07/01 05:26:22;;;;;;;2.00;1.07;;;;;;;18.97;63.63;97629.72;5064607;28;21066;-74
2022/07/01 05:28:48;;;;;;;1.30;1.00;;;;;;;18.99;63.18;97627.69;5052301;28;20191;-74
2022/07/01 05:31:13;;;;;;;1.50;0.80;;;;;;;19.07;63.07;97626.72;5069538;28;20484;-73
2022/07/01 05:33:39;;;;;;;1.20;1.00;;;;;;;19.11;62.62;97630.59;5058811;28;20568;-73
2022/07/01 05:36:05;;;;;;;1.50;1.00;;;;;;;19.14;62.17;97622.25;5061586;28;20186;-74
2022/07/01 05:38:31;;;;;;;1.20;1.00;;;;;;;19.16;62.09;97626.34;5057521;28;20971;-73
2022/07/01 05:40:56;;;;;;;1.47;0.97;;;;;;;19.11;62.53;97628.78;5057345;28;20513;-73
2022/07/01 05:43:22;;;;;;;3.00;0.90;;;;;;;19.07;62.90;97632.84;5064740;28;20201;-75
2022/07/01 05:45:47;;;;;;;3.10;1.10;;;;;;;19.09;62.75;97638.78;5059884;28;20235;-75
2022/07/01 05:48:13;;;;;;;1.60;0.80;;;;;;;18.97;63.52;97640.34;5043216;28;20232;-74
2022/07/01 05:50:43;;;;;;;1.17;0.80;;;;;;;19.00;63.37;97638.13;5055651;28;20208;-75
2022/07/01 05:53:08;;;;;;;3.00;1.10;;;;;;;18.99;63.33;97641.78;5061539;28;20183;-75
2022/07/01 05:55:34;;;;;;;1.30;0.90;;;;;;;18.94;63.60;97635.41;5054691;28;20594;-75
2022/07/01 05:58:01;;;;;;;1.57;0.77;;;;;;;18.86;63.68;97631.88;5063531;28;20277;-74
2022/07/01 06:00:27;;;;;;;1.93;0.90;;;;;;;18.88;63.72;97631.69;5056788;28;20586;-74
2022/07/01 06:02:52;;;;;;;2.67;0.97;;;;;;;18.94;63.58;97630.94;5057463;28;20428;-74
2022/07/01 06:05:18;;;;;;;2.20;0.80;;;;;;;18.99;63.12;97635.66;5063193;28;20437;-73
2022/07/01 06:07:43;;;;;;;2.80;0.90;;;;;;;19.01;63.26;97636.28;5056580;28;20738;-74
2022/07/01 06:10:10;;;;;;;2.53;0.90;;;;;;;19.05;63.44;97639.38;5066610;28;20293;-74
2022/07/01 06:12:36;;;;;;;1.70;0.90;;;;;;;19.01;63.51;97639.75;5055036;28;20286;-74
2022/07/01 06:15:02;;;;;;;1.93;1.37;;;;;;;18.99;63.69;97641.78;5063358;28;20555;-74
2022/07/01 06:17:27;;;;;;;2.03;0.97;;;;;;;18.99;63.75;97648.94;5062732;28;20869;-75
2022/07/01 06:19:53;;;;;;;5.73;1.27;;;;;;;18.98;64.06;97663.25;5057686;28;20252;-72
2022/07/01 06:22:20;;;;;;;1.13;1.03;;;;;;;18.95;64.25;97672.41;5061976;28;20690;-74
2022/07/01 06:24:46;;;;;;;2.23;1.30;;;;;;;18.93;64.25;97682.38;5054605;28;20267;-74
2022/07/01 06:27:12;;;;;;;1.80;1.17;;;;;;;18.90;63.88;97674.78;5063803;28;20494;-74
2022/07/01 06:29:37;;;;;;;5.03;1.20;;;;;;;18.93;64.55;97662.97;5063283;28;20421;-75
2022/07/01 06:32:05;;;;;;;2.33;1.30;;;;;;;18.94;64.04;97664.63;5072068;28;20194;-73
2022/07/01 06:34:30;;;;;;;1.93;1.20;;;;;;;18.78;64.64;97671.84;5044062;28;20191;-75
2022/07/01 06:36:56;;;;;;;3.00;1.50;;;;;;;18.79;64.44;97676.16;5062191;28;20959;-73
2022/07/01 06:39:21;;;;;;;2.27;1.27;;;;;;;18.85;65.02;97686.00;5072371;28;20209;-75
2022/07/01 06:41:47;;;;;;;3.80;1.40;;;;;;;18.86;64.65;97692.13;5060924;28;20681;-74
2022/07/01 06:44:13;;;;;;;1.90;1.27;;;;;;;18.87;63.91;97685.78;5057988;28;20676;-74
2022/07/01 06:46:38;;;;;;;2.43;1.13;;;;;;;18.81;63.63;97687.41;5057856;28;20187;-74
2022/07/01 06:49:04;;;;;;;1.20;1.10;;;;;;;18.79;63.68;97681.44;5052134;28;20464;-75
2022/07/01 06:51:30;;;;;;;3.50;1.00;;;;;;;18.91;63.64;97688.88;5066303;28;20206;-74
2022/07/01 06:53:55;;;;;;;2.03;1.10;;;;;;;18.84;62.78;97692.31;5055684;28;20190;-75
2022/07/01 06:56:21;;;;;;;2.03;1.20;;;;;;;18.79;63.03;97693.91;5063864;28;20214;-72
2022/07/01 06:58:46;;;;;;;3.20;1.37;;;;;;;18.85;62.95;97696.63;5059438;28;20213;-74
2022/07/01 07:01:12;;;;;;;2.73;1.20;;;;;;;18.85;62.43;97693.97;5052511;28;20253;-75
2022/07/01 07:03:38;;;;;;;3.70;1.03;;;;;;;18.88;62.82;97701.56;5061319;28;20179;-75
2022/07/01 07:06:04;;;;;;;1.70;1.10;;;;;;;18.90;62.66;97705.84;5050887;28;20191;-73
2022/07/01 07:08:30;;;;;;;1.47;0.90;;;;;;;18.88;62.39;97719.31;5063457;28;20421;-73
2022/07/01 07:10:56;;;;;;;1.40;1.03;;;;;;;18.91;62.63;97723.41;5053626;28;21005;-74
2022/07/01 07:13:21;;;;;;;5.30;1.20;;;;;;;18.97;63.55;97728.00;5064377;28;20417;-73
2022/07/01 07:15:47;;;;;;;2.00;1.10;;;;;;;18.92;63.18;97731.19;5056319;28;20266;-76
2022/07/01 07:18:13;;;;;;;1.30;1.00;;;;;;;18.98;62.94;97719.00;5058066;28;20203;-75
2022/07/01 07:20:39;;;;;;;2.90;1.13;;;;;;;18.98;62.89;97719.00;5065365;28;20214;-75
2022/07/01 07:23:04;;;;;;;1.87;0.90;;;;;;;19.02;62.89;97718.41;5056240;28;20180;-75
2022/07/01 07:25:30;;;;;;;1.20;0.87;;;;;;;19.05;62.68;97727.84;5067999;28;20186;-75
2022/07/01 07:27:56;;;;;;;2.67;1.10;;;;;;;19.04;61.97;97742.13;5059341;28;20273;-74
2022/07/01 07:30:21;;;;;;;3.23;1.20;;;;;;;18.98;62.33;97741.06;5071381;28;20270;-73
2022/07/01 07:32:47;;;;;;;1.20;0.90;;;;;;;19.06;62.66;97731.31;5062721;28;20190;-75
2022/07/01 07:35:13;;;;;;;2.90;1.00;;;;;;;19.12;62.43;97727.88;5056626;28;20757;-75
2022/07/01 07:37:39;;;;;;;3.00;1.00;;;;;;;19.09;62.11;97726.44;5065802;28;20997;-74
2022/07/01 07:40:13;;;;;;;1.37;1.20;;;;;;;19.14;62.25;97728.50;5054929;28;20187;-75
2022/07/01 07:42:39;;;;;;;3.20;1.13;;;;;;;19.11;63.03;97732.38;5073134;28;20288;-75
2022/07/01 07:45:06;;;;;;;2.80;1.20;;;;;;;19.18;62.54;97725.25;5060064;28;20441;-75
2022/07/01 07:47:35;;;;;;;1.20;1.00;;;;;;;19.18;62.57;97714.63;5068672;28;20425;-75
2022/07/01 07:50:01;;;;;;;1.67;1.07;;;;;;;19.19;61.80;97726.91;5065359;28;20435;-74
2022/07/01 07:52:27;;;;;;;1.13;0.90;;;;;;;19.19;61.80;97715.47;5072571;28;20535;-75
2022/07/01 07:54:52;;;;;;;2.30;1.10;;;;;;;19.22;62.00;97727.53;5073575;28;20277;-73
2022/07/01 07:57:18;;;;;;;0.90;0.80;;;;;;;19.23;61.89;97718.56;5070040;28;20244;-75
2022/07/01 07:59:43;;;;;;;1.73;0.97;;;;;;;19.19;61.89;97710.97;5079335;28;20205;-75
2022/07/01 08:02:09;;;;;;;1.93;1.00;;;;;;;19.23;62.15;97722.03;5072567;28;20210;-74
2022/07/01 08:04:34;;;;;;;2.17;1.20;;;;;;;19.25;62.52;97727.97;5073070;28;20186;-75
2022/07/01 08:07:00;;;;;;;2.40;1.00;;;;;;;19.14;60.35;97732.00;5072140;28;20190;-75
2022/07/01 08:09:26;;;;;;;1.33;0.93;;;;;;;19.08;61.50;97745.22;5072139;28;20192;-75
2022/07/01 08:11:51;;;;;;;3.10;1.00;;;;;;;19.11;61.99;97745.66;5079456;28;20255;-75
2022/07/01 08:14:17;;;;;;;2.23;0.70;;;;;;;19.17;61.97;97747.53;5072660;28;20425;-75
2022/07/01 08:16:42;;;;;;;1.27;1.00;;;;;;;19.18;62.35;97741.19;5067397;28;20178;-75
2022/07/01 08:19:08;;;;;;;1.77;1.00;;;;;;;19.24;62.84;97749.44;5072208;28;20219;-74
2022/07/01 08:21:33;;;;;;;2.53;1.03;;;;;;;19.24;62.68;97754.75;5072713;28;20305;-74
2022/07/01 08:23:59;;;;;;;2.57;1.43;;;;;;;19.27;63.02;97757.00;5064584;28;20273;-75
2022/07/01 08:26:24;;;;;;;3.20;1.00;;;;;;;19.26;63.04;97764.16;5067646;28;20175;-74
2022/07/01 08:28:50;;;;;;;4.90;1.00;;;;;;;19.29;63.30;97769.06;5072589;28;20657;-74
2022/07/01 08:31:15;;;;;;;1.53;1.10;;;;;;;19.24;62.50;97760.06;5075333;28;20218;-74
2022/07/01 08:33:42;;;;;;;2.27;1.10;;;;;;;19.23;61.84;97759.22;5072282;28;20194;-75
2022/07/01 08:36:08;;;;;;;1.60;1.13;;;;;;;19.23;62.49;97769.03;5074160;28;20204;-74
2022/07/01 08:38:35;;;;;;;1.83;1.17;;;;;;;19.21;62.87;97765.75;5072163;28;20461;-74
2022/07/01 08:41:01;;;;;;;2.00;1.03;;;;;;;19.20;62.17;97770.25;5072708;28;20495;-74
2022/07/01 08:43:27;;;;;;;1.20;1.10;;;;;;;19.20;62.14;97767.59;5080934;28;20436;-75
2022/07/01 08:45:53;;;;;;;2.73;0.90;;;;;;;19.25;62.76;97778.44;5073008;28;20808;-74
2022/07/01 08:48:19;;;;;;;1.60;1.10;;;;;;;19.34;63.04;97782.59;5071825;28;20444;-74
2022/07/01 08:50:45;;;;;;;1.70;1.00;;;;;;;19.40;62.81;97783.66;5075809;28;20498;-73
2022/07/01 08:53:12;;;;;;;1.73;1.27;;;;;;;19.33;61.74;97790.75;5079336;28;20637;-74
2022/07/01 08:58:23;;;;;;;2.13;1.40;;;;;;;19.31;63.01;97788.31;5070596;28;20460;-74
2022/07/01 09:00:49;;;;;;;2.10;1.40;;;;;;;19.33;62.76;97794.25;5072006;28;20448;-74
2022/07/01 09:03:14;;;;;;;1.70;1.00;;;;;;;19.22;61.79;97789.44;5071695;28;20489;-75
2022/07/01 09:05:47;;;;;;;1.20;0.90;;;;;;;19.23;61.75;97779.66;5071853;28;20863;-74
2022/07/01 09:08:13;;;;;;;1.70;1.10;;;;;;;19.31;62.39;97793.63;5071162;28;20655;-75
2022/07/01 09:10:38;;;;;;;2.57;1.30;;;;;;;19.26;62.94;97796.03;5071589;28;20551;-75
2022/07/01 09:13:06;;;;;;;1.30;1.00;;;;;;;19.26;62.88;97788.06;5071667;28;20602;-75
2022/07/01 09:15:32;;;;;;;1.37;1.10;;;;;;;19.12;62.25;97789.81;5071532;28;20265;-75
2022/07/01 09:18:06;;;;;;;3.90;1.60;;;;;;;19.16;63.07;97776.97;5070530;28;21034;-75
2022/07/01 09:20:36;;;;;;;4.03;1.40;;;;;;;19.21;63.07;97755.97;5070104;28;20181;-76
2022/07/01 09:23:12;;;;;;;2.20;1.20;;;;;;;19.22;62.68;97767.38;5082889;28;20425;-74
2022/07/01 09:25:43;;;;;;;3.97;0.93;;;;;;;19.22;62.32;97802.75;5065051;28;21009;-74
2022/07/01 09:28:26;;;;;;;4.53;1.10;;;;;;;19.23;62.51;97811.53;5070716;28;20425;-76
2022/07/01 09:30:57;;;;;;;2.23;1.30;;;;;;;19.05;63.53;97818.13;5075755;28;20443;-75
2022/07/01 09:33:24;;;;;;;3.70;1.30;;;;;;;19.08;63.75;97808.97;5071037;28;20472;-74
2022/07/01 09:35:51;;;;;;;1.53;1.10;;;;;;;19.03;64.40;97818.34;5074113;28;20424;-76
2022/07/01 09:38:18;;;;;;;2.77;1.20;;;;;;;19.03;63.47;97817.50;5070895;28;20459;-75
2022/07/01 09:41:06;;;;;;;1.43;1.03;;;;;;;19.05;63.27;97804.06;5071073;28;20916;-74
2022/07/01 09:43:34;;;;;;;2.17;1.10;;;;;;;19.05;63.14;97796.09;5067317;28;21159;-73
2022/07/01 09:46:02;;;;;;;2.60;1.10;;;;;;;19.11;62.68;97801.44;5069302;28;20984;-73
2022/07/01 09:48:43;;;;;;;3.77;1.30;;;;;;;19.05;62.90;97804.84;5063756;28;20420;-74
2022/07/01 09:51:10;;;;;;;3.20;1.20;;;;;;;19.12;62.48;97803.09;5068022;28;20452;-74
2022/07/01 09:53:35;;;;;;;1.40;1.10;;;;;;;19.17;62.58;97782.06;5069631;28;20427;-74
2022/07/01 09:56:01;;;;;;;7.53;1.50;;;;;;;19.10;63.46;97794.50;5066440;28;20810;-74
2022/07/01 09:58:27;;;;;;;2.80;1.60;;;;;;;19.09;64.19;97798.16;5075676;28;20209;-74
2022/07/01 10:00:53;;;;;;;2.43;1.27;;;;;;;19.13;64.19;97807.41;5069692;28;20444;-75
2022/07/01 10:03:19;;;;;;;1.53;1.20;;;;;;;19.23;64.32;97800.91;5068655;28;20178;-75
2022/07/01 10:05:49;;;;;;;1.30;1.20;;;;;;;19.31;64.09;97793.63;5070688;28;20440;-74
2022/07/01 10:08:24;;;;;;;3.80;1.10;;;;;;;19.43;63.88;97799.22;5070311;28;20444;-74
2022/07/01 10:11:27;;;;;;;1.70;1.60;;;;;;;19.46;63.52;97801.47;5070827;28;21006;-74
2022/07/01 10:13:53;;;;;;;2.00;1.73;;;;;;;19.52;63.43;97809.69;5069419;28;20420;-73
2022/07/01 10:16:19;;;;;;;1.83;1.73;;;;;;;19.51;62.85;97802.75;5069399;28;20511;-75
2022/07/01 10:18:45;;;;;;;1.83;1.23;;;;;;;19.53;62.38;97806.03;5069603;28;20456;-74
2022/07/01 10:21:25;;;;;;;1.50;1.40;;;;;;;19.42;60.86;97815.34;5074448;28;20455;-75
2022/07/01 10:23:51;;;;;;;2.50;1.00;;;;;;;19.51;60.71;97811.53;5071203;28;20530;-75
2022/07/01 10:26:18;;;;;;;2.07;1.27;;;;;;;19.64;60.83;97814.25;5071458;28;20436;-75
2022/07/01 10:28:46;;;;;;;1.50;1.40;;;;;;;19.67;61.00;97822.88;5076601;28;20174;-75
2022/07/01 10:31:17;;;;;;;2.00;1.27;;;;;;;19.84;61.00;97823.38;5074580;28;20460;-75
2022/07/01 10:33:47;;;;;;;1.50;1.10;;;;;;;19.92;61.45;97831.19;5070614;28;20831;-74
2022/07/01 10:36:17;;;;;;;1.20;1.10;;;;;;;20.09;61.20;97840.50;5072399;28;20493;-73
2022/07/01 10:39:07;;;;;;;1.20;1.10;;;;;;;20.17;59.94;97849.31;5070428;28;20459;-74
2022/07/01 10:41:35;;;;;;;1.40;0.97;;;;;;;20.17;58.80;97836.03;5074502;28;20451;-75
2022/07/01 10:44:06;;;;;;;1.40;1.30;;;;;;;20.26;58.46;97826.88;5073303;28;20433;-74
2022/07/01 10:46:45;;;;;;;1.10;1.00;;;;;;;20.30;57.49;97848.56;5069818;28;20880;-73
2022/07/01 10:49:15;;;;;;;1.27;0.93;;;;;;;20.24;56.78;97851.00;5060939;28;20421;-74
2022/07/01 10:51:55;;;;;;;3.00;1.03;;;;;;;20.31;58.57;97851.03;5068731;28;20464;-74
2022/07/01 10:54:43;;;;;;;1.23;0.93;;;;;;;20.46;58.13;97855.38;5054353;28;20959;-75
2022/07/01 10:59:48;;;;;;;2.80;1.20;;;;;;;20.57;56.27;97870.75;5074060;28;20460;-75
2022/07/01 11:02:16;;;;;;;2.00;1.13;;;;;;;20.63;57.03;97867.31;5073927;28;20883;-75
2022/07/01 11:04:42;;;;;;;1.37;1.10;;;;;;;20.85;57.32;97861.84;5073032;28;20439;-74
2022/07/01 11:07:08;;;;;;;1.53;1.10;;;;;;;21.09;56.92;97862.28;5073395;28;20436;-75
2022/07/01 11:09:34;;;;;;;1.57;1.13;;;;;;;21.32;55.44;97853.91;5070893;28;20635;-74
2022/07/01 11:11:59;;;;;;;1.53;0.90;;;;;;;21.47;54.99;97857.19;5075517;28;20472;-75
2022/07/01 11:14:25;;;;;;;1.70;1.23;;;;;;;21.66;55.44;97856.56;5060075;28;20190;-76
2022/07/01 11:16:51;;;;;;;1.67;0.97;;;;;;;21.70;53.81;97852.44;5059117;28;20646;-75
2022/07/01 11:19:18;;;;;;;2.70;0.93;;;;;;;21.72;53.01;97842.38;5059801;28;20495;-76
2022/07/01 11:21:50;;;;;;;1.60;1.10;;;;;;;21.79;53.11;97851.19;5060456;28;20622;-75
2022/07/01 11:24:22;;;;;;;3.10;1.00;;;;;;;21.84;53.27;97855.91;5058357;28;20516;-75
2022/07/01 11:26:49;;;;;;;1.10;1.00;;;;;;;21.85;53.34;97847.69;5057037;28;20797;-75
2022/07/01 11:29:24;;;;;;;1.30;1.07;;;;;;;21.83;52.01;97856.94;5063243;28;20421;-76
2022/07/01 11:31:50;;;;;;;1.10;0.90;;;;;;;21.83;52.95;97856.94;5060570;28;20527;-75
2022/07/01 11:34:16;;;;;;;3.10;1.13;;;;;;;21.72;52.20;97861.06;5055281;28;20469;-76
2022/07/01 11:39:34;;;;;;;1.90;1.00;;;;;;;21.46;53.37;97863.53;5057893;28;20456;-75
2022/07/01 11:42:04;;;;;;;6.07;1.13;;;;;;;21.32;55.05;97862.69;5056248;28;20452;-75
2022/07/01 11:44:38;;;;;;;1.30;1.00;;;;;;;21.30;55.60;97854.09;5056421;28;20431;-75
2022/07/01 11:47:05;;;;;;;1.87;1.20;;;;;;;21.29;55.19;97860.47;5055084;28;20429;-75
2022/07/01 11:49:31;;;;;;;2.93;1.10;;;;;;;21.28;55.01;97858.00;5056174;28;21808;-75
2022/07/01 11:52:04;;;;;;;2.00;1.10;;;;;;;21.22;55.05;97851.63;5055916;28;20449;-75